sensor_id;sensor_type;location;lat;lon;timestamp;P1;durP1;ratioP1;P2;durP2;ratioP2
19814;SDS011;10067;53.092;8.800;2023-05-07T00:02:17;26.80;;;19.23;;
19814;SDS011;10067;53.092;8.800;2023-05-07T00:04:44;24.50;;;19.45;;
19814;SDS011;10067;53.092;8.800;2023-05-07T00:07:10;25.88;;;19.60;;
19814;SDS011;10067;53.092;8.800;2023-05-07T00:09:36;24.90;;;17.90;;
19814;SDS011;10067;53.092;8.800;2023-05-07T00:12:03;24.70;;;18.30;;
19814;SDS011;10067;53.092;8.800;2023-05-07T00:14:31;25.50;;;18.58;;
19814;SDS011;10067;53.092;8.800;2023-05-07T00:16:57;25.65;;;19.02;;
19814;SDS011;10067;53.092;8.800;2023-05-07T00:19:24;31.33;;;20.75;;
19814;SDS011;10067;53.092;8.800;2023-05-07T00:21:50;23.48;;;19.00;;
19814;SDS011;10067;53.092;8.800;2023-05-07T00:24:18;26.85;;;19.45;;
19814;SDS011;10067;53.092;8.800;2023-05-07T00:26:44;26.63;;;20.50;;
19814;SDS011;10067;53.092;8.800;2023-05-07T00:29:11;28.58;;;20.17;;
19814;SDS011;10067;53.092;8.800;2023-05-07T00:31:39;26.67;;;19.88;;
19814;SDS011;10067;53.092;8.800;2023-05-07T00:34:05;27.80;;;20.08;;
19814;SDS011;10067;53.092;8.800;2023-05-07T00:36:32;25.83;;;19.25;;
19814;SDS011;10067;53.092;8.800;2023-05-07T00:38:58;26.00;;;18.98;;
19814;SDS011;10067;53.092;8.800;2023-05-07T00:41:25;26.48;;;19.48;;
19814;SDS011;10067;53.092;8.800;2023-05-07T00:43:51;24.48;;;19.23;;
19814;SDS011;10067;53.092;8.800;2023-05-07T00:46:18;25.15;;;18.95;;
19814;SDS011;10067;53.092;8.800;2023-05-07T00:48:47;29.88;;;18.92;;
19814;SDS011;10067;53.092;8.800;2023-05-07T00:51:14;24.10;;;19.00;;
19814;SDS011;10067;53.092;8.800;2023-05-07T00:53:40;21.77;;;18.35;;
19814;SDS011;10067;53.092;8.800;2023-05-07T00:56:06;25.52;;;19.92;;
19814;SDS011;10067;53.092;8.800;2023-05-07T00:58:33;23.95;;;18.50;;
19814;SDS011;10067;53.092;8.800;2023-05-07T01:00:59;25.90;;;18.75;;
19814;SDS011;10067;53.092;8.800;2023-05-07T01:03:26;24.63;;;18.08;;
19814;SDS011;10067;53.092;8.800;2023-05-07T01:05:54;24.25;;;18.63;;
19814;SDS011;10067;53.092;8.800;2023-05-07T01:08:21;21.27;;;18.38;;
19814;SDS011;10067;53.092;8.800;2023-05-07T01:10:49;25.08;;;20.13;;
19814;SDS011;10067;53.092;8.800;2023-05-07T01:13:17;26.00;;;20.67;;
19814;SDS011;10067;53.092;8.800;2023-05-07T01:15:44;25.73;;;20.05;;
19814;SDS011;10067;53.092;8.800;2023-05-07T01:18:11;26.50;;;19.98;;
19814;SDS011;10067;53.092;8.800;2023-05-07T01:20:37;28.60;;;21.10;;
19814;SDS011;10067;53.092;8.800;2023-05-07T01:23:05;25.42;;;19.92;;
19814;SDS011;10067;53.092;8.800;2023-05-07T01:25:33;24.80;;;19.92;;
19814;SDS011;10067;53.092;8.800;2023-05-07T01:27:59;25.55;;;19.98;;
19814;SDS011;10067;53.092;8.800;2023-05-07T01:30:26;25.58;;;20.88;;
19814;SDS011;10067;53.092;8.800;2023-05-07T01:32:56;28.13;;;20.63;;
19814;SDS011;10067;53.092;8.800;2023-05-07T01:35:24;26.15;;;19.08;;
19814;SDS011;10067;53.092;8.800;2023-05-07T01:37:51;28.50;;;20.58;;
19814;SDS011;10067;53.092;8.800;2023-05-07T01:40:19;27.77;;;20.15;;
19814;SDS011;10067;53.092;8.800;2023-05-07T01:42:45;28.90;;;20.40;;
19814;SDS011;10067;53.092;8.800;2023-05-07T01:45:13;26.67;;;19.95;;
19814;SDS011;10067;53.092;8.800;2023-05-07T01:47:39;29.33;;;21.05;;
19814;SDS011;10067;53.092;8.800;2023-05-07T01:50:08;28.02;;;20.60;;
19814;SDS011;10067;53.092;8.800;2023-05-07T01:52:36;29.73;;;20.27;;
19814;SDS011;10067;53.092;8.800;2023-05-07T01:55:02;25.50;;;19.20;;
19814;SDS011;10067;53.092;8.800;2023-05-07T01:57:31;26.38;;;19.88;;
19814;SDS011;10067;53.092;8.800;2023-05-07T01:59:57;27.77;;;19.67;;
19814;SDS011;10067;53.092;8.800;2023-05-07T02:02:23;29.92;;;20.60;;
19814;SDS011;10067;53.092;8.800;2023-05-07T02:04:50;26.35;;;18.80;;
19814;SDS011;10067;53.092;8.800;2023-05-07T02:07:16;26.75;;;20.45;;
19814;SDS011;10067;53.092;8.800;2023-05-07T02:09:43;26.05;;;18.73;;
19814;SDS011;10067;53.092;8.800;2023-05-07T02:12:09;24.80;;;19.00;;
19814;SDS011;10067;53.092;8.800;2023-05-07T02:14:37;26.20;;;19.35;;
19814;SDS011;10067;53.092;8.800;2023-05-07T02:17:03;27.00;;;19.60;;
19814;SDS011;10067;53.092;8.800;2023-05-07T02:19:30;26.50;;;19.80;;
19814;SDS011;10067;53.092;8.800;2023-05-07T02:21:56;24.77;;;17.60;;
19814;SDS011;10067;53.092;8.800;2023-05-07T02:24:23;26.55;;;18.70;;
19814;SDS011;10067;53.092;8.800;2023-05-07T02:26:49;26.08;;;18.50;;
19814;SDS011;10067;53.092;8.800;2023-05-07T02:29:16;27.73;;;19.88;;
19814;SDS011;10067;53.092;8.800;2023-05-07T02:31:43;27.10;;;18.25;;
19814;SDS011;10067;53.092;8.800;2023-05-07T02:34:10;27.98;;;18.23;;
19814;SDS011;10067;53.092;8.800;2023-05-07T02:36:39;24.35;;;17.42;;
19814;SDS011;10067;53.092;8.800;2023-05-07T02:39:06;27.60;;;18.63;;
19814;SDS011;10067;53.092;8.800;2023-05-07T02:41:34;25.85;;;18.05;;
19814;SDS011;10067;53.092;8.800;2023-05-07T02:44:00;26.95;;;19.05;;
19814;SDS011;10067;53.092;8.800;2023-05-07T02:46:27;27.02;;;19.67;;
19814;SDS011;10067;53.092;8.800;2023-05-07T02:48:55;27.45;;;17.90;;
19814;SDS011;10067;53.092;8.800;2023-05-07T02:51:22;25.95;;;18.10;;
19814;SDS011;10067;53.092;8.800;2023-05-07T02:53:49;27.52;;;19.60;;
19814;SDS011;10067;53.092;8.800;2023-05-07T02:56:15;29.02;;;18.83;;
19814;SDS011;10067;53.092;8.800;2023-05-07T02:58:42;27.75;;;19.30;;
19814;SDS011;10067;53.092;8.800;2023-05-07T03:01:08;28.02;;;19.20;;
19814;SDS011;10067;53.092;8.800;2023-05-07T03:03:35;27.25;;;19.55;;
19814;SDS011;10067;53.092;8.800;2023-05-07T03:06:03;27.23;;;18.98;;
19814;SDS011;10067;53.092;8.800;2023-05-07T03:08:29;29.55;;;19.85;;
19814;SDS011;10067;53.092;8.800;2023-05-07T03:10:55;26.52;;;17.50;;
19814;SDS011;10067;53.092;8.800;2023-05-07T03:13:22;29.52;;;19.13;;
19814;SDS011;10067;53.092;8.800;2023-05-07T03:15:49;23.92;;;18.02;;
19814;SDS011;10067;53.092;8.800;2023-05-07T03:18:15;29.20;;;18.77;;
19814;SDS011;10067;53.092;8.800;2023-05-07T03:20:41;27.15;;;18.77;;
19814;SDS011;10067;53.092;8.800;2023-05-07T03:23:09;26.73;;;18.98;;
19814;SDS011;10067;53.092;8.800;2023-05-07T03:25:35;23.88;;;18.80;;
19814;SDS011;10067;53.092;8.800;2023-05-07T03:28:02;25.52;;;18.00;;
19814;SDS011;10067;53.092;8.800;2023-05-07T03:30:28;30.42;;;19.45;;
19814;SDS011;10067;53.092;8.800;2023-05-07T03:32:55;29.02;;;19.77;;
19814;SDS011;10067;53.092;8.800;2023-05-07T03:35:21;25.85;;;19.02;;
19814;SDS011;10067;53.092;8.800;2023-05-07T03:37:47;27.95;;;19.15;;
19814;SDS011;10067;53.092;8.800;2023-05-07T03:40:15;27.35;;;18.80;;
19814;SDS011;10067;53.092;8.800;2023-05-07T03:42:42;30.30;;;19.45;;
19814;SDS011;10067;53.092;8.800;2023-05-07T03:45:08;26.20;;;19.05;;
19814;SDS011;10067;53.092;8.800;2023-05-07T03:47:35;26.88;;;18.55;;
19814;SDS011;10067;53.092;8.800;2023-05-07T03:50:01;23.38;;;17.00;;
19814;SDS011;10067;53.092;8.800;2023-05-07T03:52:27;25.05;;;18.33;;
19814;SDS011;10067;53.092;8.800;2023-05-07T03:54:54;26.08;;;17.27;;
19814;SDS011;10067;53.092;8.800;2023-05-07T03:57:22;25.88;;;17.70;;
19814;SDS011;10067;53.092;8.800;2023-05-07T03:59:48;23.80;;;16.83;;
19814;SDS011;10067;53.092;8.800;2023-05-07T04:02:14;24.38;;;17.02;;
19814;SDS011;10067;53.092;8.800;2023-05-07T04:04:41;22.40;;;16.75;;
19814;SDS011;10067;53.092;8.800;2023-05-07T04:07:07;23.38;;;15.80;;
19814;SDS011;10067;53.092;8.800;2023-05-07T04:09:34;21.55;;;16.25;;
19814;SDS011;10067;53.092;8.800;2023-05-07T04:12:01;21.63;;;15.50;;
19814;SDS011;10067;53.092;8.800;2023-05-07T04:14:29;22.13;;;16.13;;
19814;SDS011;10067;53.092;8.800;2023-05-07T04:16:57;20.15;;;15.60;;
19814;SDS011;10067;53.092;8.800;2023-05-07T04:19:23;22.70;;;15.52;;
19814;SDS011;10067;53.092;8.800;2023-05-07T04:21:50;23.23;;;16.15;;
19814;SDS011;10067;53.092;8.800;2023-05-07T04:24:16;20.13;;;14.45;;
19814;SDS011;10067;53.092;8.800;2023-05-07T04:26:43;19.60;;;14.88;;
19814;SDS011;10067;53.092;8.800;2023-05-07T04:29:12;19.33;;;13.95;;
19814;SDS011;10067;53.092;8.800;2023-05-07T04:31:40;18.30;;;14.35;;
19814;SDS011;10067;53.092;8.800;2023-05-07T04:34:09;20.42;;;14.68;;
19814;SDS011;10067;53.092;8.800;2023-05-07T04:36:36;20.92;;;14.18;;
19814;SDS011;10067;53.092;8.800;2023-05-07T04:39:02;22.20;;;15.43;;
19814;SDS011;10067;53.092;8.800;2023-05-07T04:41:28;19.90;;;14.73;;
19814;SDS011;10067;53.092;8.800;2023-05-07T04:43:55;21.05;;;15.55;;
19814;SDS011;10067;53.092;8.800;2023-05-07T04:46:22;19.80;;;14.10;;
19814;SDS011;10067;53.092;8.800;2023-05-07T04:48:50;18.70;;;14.93;;
19814;SDS011;10067;53.092;8.800;2023-05-07T04:51:16;22.95;;;14.70;;
19814;SDS011;10067;53.092;8.800;2023-05-07T04:53:43;21.55;;;15.57;;
19814;SDS011;10067;53.092;8.800;2023-05-07T04:56:09;23.65;;;15.13;;
19814;SDS011;10067;53.092;8.800;2023-05-07T04:58:36;20.38;;;15.10;;
19814;SDS011;10067;53.092;8.800;2023-05-07T05:01:02;24.52;;;15.32;;
19814;SDS011;10067;53.092;8.800;2023-05-07T05:03:28;22.25;;;15.38;;
19814;SDS011;10067;53.092;8.800;2023-05-07T05:05:56;19.73;;;14.48;;
19814;SDS011;10067;53.092;8.800;2023-05-07T05:08:24;21.00;;;15.05;;
19814;SDS011;10067;53.092;8.800;2023-05-07T05:10:50;17.42;;;13.73;;
19814;SDS011;10067;53.092;8.800;2023-05-07T05:13:17;19.27;;;14.05;;
19814;SDS011;10067;53.092;8.800;2023-05-07T05:15:43;18.20;;;14.32;;
19814;SDS011;10067;53.092;8.800;2023-05-07T05:18:10;19.60;;;14.50;;
19814;SDS011;10067;53.092;8.800;2023-05-07T05:20:37;19.30;;;14.27;;
19814;SDS011;10067;53.092;8.800;2023-05-07T05:23:04;20.08;;;14.30;;
19814;SDS011;10067;53.092;8.800;2023-05-07T05:25:31;20.30;;;15.02;;
19814;SDS011;10067;53.092;8.800;2023-05-07T05:27:57;21.50;;;14.93;;
19814;SDS011;10067;53.092;8.800;2023-05-07T05:30:24;19.48;;;14.15;;
19814;SDS011;10067;53.092;8.800;2023-05-07T05:32:50;17.40;;;13.23;;
19814;SDS011;10067;53.092;8.800;2023-05-07T05:35:16;18.35;;;13.02;;
19814;SDS011;10067;53.092;8.800;2023-05-07T05:37:43;18.27;;;13.13;;
19814;SDS011;10067;53.092;8.800;2023-05-07T05:40:11;16.42;;;12.80;;
19814;SDS011;10067;53.092;8.800;2023-05-07T05:42:38;16.30;;;12.80;;
19814;SDS011;10067;53.092;8.800;2023-05-07T05:45:05;15.57;;;12.25;;
19814;SDS011;10067;53.092;8.800;2023-05-07T05:47:31;16.88;;;12.43;;
19814;SDS011;10067;53.092;8.800;2023-05-07T05:49:58;14.60;;;11.85;;
19814;SDS011;10067;53.092;8.800;2023-05-07T05:52:24;15.05;;;12.07;;
19814;SDS011;10067;53.092;8.800;2023-05-07T05:54:50;15.73;;;11.25;;
19814;SDS011;10067;53.092;8.800;2023-05-07T05:57:18;15.02;;;12.52;;
19814;SDS011;10067;53.092;8.800;2023-05-07T05:59:45;14.25;;;11.82;;
19814;SDS011;10067;53.092;8.800;2023-05-07T06:02:12;14.90;;;11.50;;
19814;SDS011;10067;53.092;8.800;2023-05-07T06:04:38;15.40;;;11.27;;
19814;SDS011;10067;53.092;8.800;2023-05-07T06:07:05;18.73;;;11.23;;
19814;SDS011;10067;53.092;8.800;2023-05-07T06:09:31;14.32;;;11.25;;
19814;SDS011;10067;53.092;8.800;2023-05-07T06:11:57;14.18;;;11.27;;
19814;SDS011;10067;53.092;8.800;2023-05-07T06:14:25;13.43;;;11.20;;
19814;SDS011;10067;53.092;8.800;2023-05-07T06:16:51;12.77;;;10.98;;
19814;SDS011;10067;53.092;8.800;2023-05-07T06:19:18;16.15;;;12.02;;
19814;SDS011;10067;53.092;8.800;2023-05-07T06:21:48;14.15;;;11.13;;
19814;SDS011;10067;53.092;8.800;2023-05-07T06:24:14;13.77;;;11.05;;
19814;SDS011;10067;53.092;8.800;2023-05-07T06:26:41;14.98;;;13.23;;
19814;SDS011;10067;53.092;8.800;2023-05-07T06:29:07;14.45;;;11.35;;
19814;SDS011;10067;53.092;8.800;2023-05-07T06:31:35;12.75;;;10.82;;
19814;SDS011;10067;53.092;8.800;2023-05-07T06:34:01;12.68;;;10.43;;
19814;SDS011;10067;53.092;8.800;2023-05-07T06:36:27;11.88;;;10.30;;
19814;SDS011;10067;53.092;8.800;2023-05-07T06:38:54;13.25;;;10.98;;
19814;SDS011;10067;53.092;8.800;2023-05-07T06:41:20;13.15;;;10.43;;
19814;SDS011;10067;53.092;8.800;2023-05-07T06:43:47;12.93;;;10.45;;
19814;SDS011;10067;53.092;8.800;2023-05-07T06:46:13;11.68;;;9.90;;
19814;SDS011;10067;53.092;8.800;2023-05-07T06:48:41;12.35;;;10.90;;
19814;SDS011;10067;53.092;8.800;2023-05-07T06:51:07;11.98;;;9.73;;
19814;SDS011;10067;53.092;8.800;2023-05-07T06:53:34;13.18;;;9.95;;
19814;SDS011;10067;53.092;8.800;2023-05-07T06:56:01;11.55;;;10.30;;
19814;SDS011;10067;53.092;8.800;2023-05-07T06:58:27;11.43;;;9.52;;
19814;SDS011;10067;53.092;8.800;2023-05-07T07:00:53;10.80;;;9.70;;
19814;SDS011;10067;53.092;8.800;2023-05-07T07:03:20;12.82;;;9.10;;
19814;SDS011;10067;53.092;8.800;2023-05-07T07:05:47;10.40;;;9.07;;
19814;SDS011;10067;53.092;8.800;2023-05-07T07:08:17;12.25;;;10.02;;
19814;SDS011;10067;53.092;8.800;2023-05-07T07:10:43;11.27;;;10.07;;
19814;SDS011;10067;53.092;8.800;2023-05-07T07:13:10;13.05;;;9.02;;
19814;SDS011;10067;53.092;8.800;2023-05-07T07:15:36;10.73;;;9.57;;
19814;SDS011;10067;53.092;8.800;2023-05-07T07:18:02;13.35;;;9.32;;
19814;SDS011;10067;53.092;8.800;2023-05-07T07:20:29;13.52;;;9.75;;
19814;SDS011;10067;53.092;8.800;2023-05-07T07:22:56;10.45;;;9.35;;
19814;SDS011;10067;53.092;8.800;2023-05-07T07:25:23;10.88;;;9.60;;
19814;SDS011;10067;53.092;8.800;2023-05-07T07:27:49;12.40;;;8.80;;
19814;SDS011;10067;53.092;8.800;2023-05-07T07:30:16;12.00;;;9.77;;
19814;SDS011;10067;53.092;8.800;2023-05-07T07:32:42;10.98;;;9.88;;
19814;SDS011;10067;53.092;8.800;2023-05-07T07:35:08;10.57;;;9.40;;
19814;SDS011;10067;53.092;8.800;2023-05-07T07:37:35;13.20;;;10.07;;
19814;SDS011;10067;53.092;8.800;2023-05-07T07:40:03;13.30;;;10.50;;
19814;SDS011;10067;53.092;8.800;2023-05-07T07:42:29;12.00;;;10.25;;
19814;SDS011;10067;53.092;8.800;2023-05-07T07:44:56;13.20;;;9.85;;
19814;SDS011;10067;53.092;8.800;2023-05-07T07:47:22;11.75;;;10.50;;
19814;SDS011;10067;53.092;8.800;2023-05-07T07:49:49;13.52;;;10.27;;
19814;SDS011;10067;53.092;8.800;2023-05-07T07:52:15;13.40;;;10.80;;
19814;SDS011;10067;53.092;8.800;2023-05-07T07:54:41;10.98;;;9.68;;
19814;SDS011;10067;53.092;8.800;2023-05-07T07:57:09;10.82;;;9.43;;
19814;SDS011;10067;53.092;8.800;2023-05-07T07:59:36;10.60;;;9.50;;
19814;SDS011;10067;53.092;8.800;2023-05-07T08:02:02;11.52;;;10.32;;
19814;SDS011;10067;53.092;8.800;2023-05-07T08:04:29;10.07;;;8.98;;
19814;SDS011;10067;53.092;8.800;2023-05-07T08:06:55;11.27;;;9.07;;
19814;SDS011;10067;53.092;8.800;2023-05-07T08:09:22;10.35;;;9.13;;
19814;SDS011;10067;53.092;8.800;2023-05-07T08:11:49;11.05;;;8.88;;
19814;SDS011;10067;53.092;8.800;2023-05-07T08:14:16;11.07;;;8.60;;
19814;SDS011;10067;53.092;8.800;2023-05-07T08:16:43;10.77;;;8.15;;
19814;SDS011;10067;53.092;8.800;2023-05-07T08:19:09;9.82;;;8.43;;
19814;SDS011;10067;53.092;8.800;2023-05-07T08:21:38;9.50;;;8.23;;
19814;SDS011;10067;53.092;8.800;2023-05-07T08:24:05;10.75;;;8.95;;
19814;SDS011;10067;53.092;8.800;2023-05-07T08:26:31;8.90;;;7.93;;
19814;SDS011;10067;53.092;8.800;2023-05-07T08:28:57;9.25;;;8.15;;
19814;SDS011;10067;53.092;8.800;2023-05-07T08:31:25;9.00;;;7.50;;
19814;SDS011;10067;53.092;8.800;2023-05-07T08:33:52;10.35;;;8.30;;
19814;SDS011;10067;53.092;8.800;2023-05-07T08:36:18;9.55;;;7.63;;
19814;SDS011;10067;53.092;8.800;2023-05-07T08:38:45;8.57;;;7.60;;
19814;SDS011;10067;53.092;8.800;2023-05-07T08:41:11;9.68;;;7.82;;
19814;SDS011;10067;53.092;8.800;2023-05-07T08:43:38;8.40;;;7.50;;
19814;SDS011;10067;53.092;8.800;2023-05-07T08:46:06;9.02;;;7.65;;
19814;SDS011;10067;53.092;8.800;2023-05-07T08:48:36;8.38;;;7.50;;
19814;SDS011;10067;53.092;8.800;2023-05-07T08:51:03;9.52;;;8.30;;
19814;SDS011;10067;53.092;8.800;2023-05-07T08:53:29;9.57;;;7.97;;
19814;SDS011;10067;53.092;8.800;2023-05-07T08:55:55;8.80;;;7.50;;
19814;SDS011;10067;53.092;8.800;2023-05-07T08:58:22;9.52;;;8.02;;
19814;SDS011;10067;53.092;8.800;2023-05-07T09:00:48;8.52;;;7.63;;
19814;SDS011;10067;53.092;8.800;2023-05-07T09:03:15;8.90;;;7.85;;
19814;SDS011;10067;53.092;8.800;2023-05-07T09:05:43;9.25;;;7.75;;
19814;SDS011;10067;53.092;8.800;2023-05-07T09:08:09;9.93;;;8.30;;
19814;SDS011;10067;53.092;8.800;2023-05-07T09:10:36;11.40;;;9.52;;
19814;SDS011;10067;53.092;8.800;2023-05-07T09:13:02;8.27;;;7.25;;
19814;SDS011;10067;53.092;8.800;2023-05-07T09:15:29;8.95;;;7.80;;
19814;SDS011;10067;53.092;8.800;2023-05-07T09:17:58;9.65;;;7.43;;
19814;SDS011;10067;53.092;8.800;2023-05-07T09:20:26;8.23;;;7.20;;
19814;SDS011;10067;53.092;8.800;2023-05-07T09:22:53;10.43;;;8.80;;
19814;SDS011;10067;53.092;8.800;2023-05-07T09:25:27;9.02;;;7.68;;
19814;SDS011;10067;53.092;8.800;2023-05-07T09:27:54;10.02;;;8.20;;
19814;SDS011;10067;53.092;8.800;2023-05-07T09:30:20;11.10;;;8.80;;
19814;SDS011;10067;53.092;8.800;2023-05-07T09:32:47;13.95;;;9.20;;
19814;SDS011;10067;53.092;8.800;2023-05-07T09:35:17;12.50;;;9.48;;
19814;SDS011;10067;53.092;8.800;2023-05-07T09:37:43;10.27;;;8.23;;
19814;SDS011;10067;53.092;8.800;2023-05-07T09:40:20;10.52;;;8.13;;
19814;SDS011;10067;53.092;8.800;2023-05-07T09:42:47;10.02;;;8.75;;
19814;SDS011;10067;53.092;8.800;2023-05-07T09:45:14;11.10;;;8.55;;
19814;SDS011;10067;53.092;8.800;2023-05-07T09:47:41;9.52;;;8.27;;
19814;SDS011;10067;53.092;8.800;2023-05-07T09:50:09;11.80;;;9.18;;
19814;SDS011;10067;53.092;8.800;2023-05-07T09:52:36;10.40;;;9.13;;
19814;SDS011;10067;53.092;8.800;2023-05-07T09:55:05;11.63;;;9.48;;
19814;SDS011;10067;53.092;8.800;2023-05-07T09:57:33;13.38;;;8.98;;
19814;SDS011;10067;53.092;8.800;2023-05-07T10:00:00;10.00;;;8.52;;
19814;SDS011;10067;53.092;8.800;2023-05-07T10:02:29;9.80;;;8.80;;
19814;SDS011;10067;53.092;8.800;2023-05-07T10:04:56;10.85;;;9.18;;
19814;SDS011;10067;53.092;8.800;2023-05-07T10:07:25;11.02;;;9.07;;
19814;SDS011;10067;53.092;8.800;2023-05-07T10:09:51;15.75;;;9.95;;
19814;SDS011;10067;53.092;8.800;2023-05-07T10:12:18;11.93;;;9.18;;
19814;SDS011;10067;53.092;8.800;2023-05-07T10:14:47;10.02;;;8.93;;
19814;SDS011;10067;53.092;8.800;2023-05-07T10:17:14;11.63;;;9.65;;
19814;SDS011;10067;53.092;8.800;2023-05-07T10:19:41;13.27;;;10.65;;
19814;SDS011;10067;53.092;8.800;2023-05-07T10:22:08;11.57;;;9.27;;
19814;SDS011;10067;53.092;8.800;2023-05-07T10:24:35;11.80;;;9.63;;
19814;SDS011;10067;53.092;8.800;2023-05-07T10:27:03;11.88;;;10.40;;
19814;SDS011;10067;53.092;8.800;2023-05-07T10:29:32;10.80;;;8.93;;
19814;SDS011;10067;53.092;8.800;2023-05-07T10:32:04;13.55;;;9.70;;
19814;SDS011;10067;53.092;8.800;2023-05-07T10:34:37;13.27;;;11.00;;
19814;SDS011;10067;53.092;8.800;2023-05-07T10:37:04;12.25;;;10.75;;
19814;SDS011;10067;53.092;8.800;2023-05-07T10:39:31;11.30;;;9.32;;
19814;SDS011;10067;53.092;8.800;2023-05-07T10:42:06;14.98;;;9.82;;
19814;SDS011;10067;53.092;8.800;2023-05-07T10:44:33;13.68;;;10.80;;
19814;SDS011;10067;53.092;8.800;2023-05-07T10:47:11;12.50;;;10.27;;
19814;SDS011;10067;53.092;8.800;2023-05-07T10:52:20;11.65;;;10.23;;
19814;SDS011;10067;53.092;8.800;2023-05-07T10:54:48;12.75;;;9.55;;
19814;SDS011;10067;53.092;8.800;2023-05-07T10:57:35;10.50;;;9.20;;
19814;SDS011;10067;53.092;8.800;2023-05-07T11:00:16;11.95;;;9.27;;
19814;SDS011;10067;53.092;8.800;2023-05-07T11:03:06;10.32;;;9.23;;
19814;SDS011;10067;53.092;8.800;2023-05-07T11:05:33;12.07;;;8.85;;
19814;SDS011;10067;53.092;8.800;2023-05-07T11:08:00;10.85;;;9.52;;
19814;SDS011;10067;53.092;8.800;2023-05-07T11:13:07;12.02;;;9.32;;
19814;SDS011;10067;53.092;8.800;2023-05-07T11:15:40;10.55;;;8.57;;
19814;SDS011;10067;53.092;8.800;2023-05-07T11:18:09;10.85;;;9.35;;
19814;SDS011;10067;53.092;8.800;2023-05-07T11:26:12;9.35;;;8.40;;
19814;SDS011;10067;53.092;8.800;2023-05-07T11:28:39;10.48;;;8.60;;
19814;SDS011;10067;53.092;8.800;2023-05-07T11:31:06;12.05;;;8.45;;
19814;SDS011;10067;53.092;8.800;2023-05-07T11:33:34;10.90;;;8.68;;
19814;SDS011;10067;53.092;8.800;2023-05-07T11:36:02;10.35;;;8.75;;
19814;SDS011;10067;53.092;8.800;2023-05-07T11:38:28;10.27;;;9.02;;
19814;SDS011;10067;53.092;8.800;2023-05-07T11:40:56;11.05;;;9.13;;
19814;SDS011;10067;53.092;8.800;2023-05-07T11:43:23;10.65;;;9.45;;
19814;SDS011;10067;53.092;8.800;2023-05-07T11:45:50;11.30;;;8.50;;
19814;SDS011;10067;53.092;8.800;2023-05-07T11:48:16;9.07;;;8.18;;
19814;SDS011;10067;53.092;8.800;2023-05-07T11:50:54;9.75;;;8.75;;
19814;SDS011;10067;53.092;8.800;2023-05-07T11:53:20;10.48;;;8.15;;
19814;SDS011;10067;53.092;8.800;2023-05-07T11:55:51;10.65;;;8.68;;
19814;SDS011;10067;53.092;8.800;2023-05-07T11:58:20;9.27;;;8.38;;
19814;SDS011;10067;53.092;8.800;2023-05-07T12:00:50;10.85;;;8.85;;
19814;SDS011;10067;53.092;8.800;2023-05-07T12:03:17;10.13;;;8.70;;
19814;SDS011;10067;53.092;8.800;2023-05-07T12:05:44;10.05;;;8.73;;
19814;SDS011;10067;53.092;8.800;2023-05-07T12:08:14;9.98;;;8.02;;
19814;SDS011;10067;53.092;8.800;2023-05-07T12:10:41;11.05;;;9.07;;
19814;SDS011;10067;53.092;8.800;2023-05-07T12:13:13;10.15;;;8.88;;
19814;SDS011;10067;53.092;8.800;2023-05-07T12:15:40;10.32;;;8.88;;
19814;SDS011;10067;53.092;8.800;2023-05-07T12:18:06;14.07;;;9.10;;
19814;SDS011;10067;53.092;8.800;2023-05-07T12:20:33;11.05;;;8.63;;
19814;SDS011;10067;53.092;8.800;2023-05-07T12:23:01;10.77;;;9.18;;
19814;SDS011;10067;53.092;8.800;2023-05-07T12:25:31;10.70;;;9.43;;
19814;SDS011;10067;53.092;8.800;2023-05-07T12:27:57;10.15;;;8.00;;
19814;SDS011;10067;53.092;8.800;2023-05-07T12:30:26;10.63;;;8.43;;
19814;SDS011;10067;53.092;8.800;2023-05-07T12:32:52;8.98;;;8.07;;
19814;SDS011;10067;53.092;8.800;2023-05-07T12:35:25;8.68;;;7.78;;
19814;SDS011;10067;53.092;8.800;2023-05-07T12:37:54;9.43;;;8.52;;
19814;SDS011;10067;53.092;8.800;2023-05-07T12:40:20;13.48;;;8.25;;
19814;SDS011;10067;53.092;8.800;2023-05-07T12:42:48;8.95;;;7.85;;
19814;SDS011;10067;53.092;8.800;2023-05-07T12:45:18;9.52;;;7.90;;
19814;SDS011;10067;53.092;8.800;2023-05-07T12:47:45;7.95;;;7.15;;
19814;SDS011;10067;53.092;8.800;2023-05-07T12:50:12;9.13;;;7.80;;
19814;SDS011;10067;53.092;8.800;2023-05-07T12:52:39;8.50;;;7.60;;
19814;SDS011;10067;53.092;8.800;2023-05-07T12:55:05;7.95;;;7.15;;
19814;SDS011;10067;53.092;8.800;2023-05-07T12:57:37;10.23;;;8.07;;
19814;SDS011;10067;53.092;8.800;2023-05-07T13:00:06;10.38;;;7.57;;
19814;SDS011;10067;53.092;8.800;2023-05-07T13:02:32;7.93;;;7.10;;
19814;SDS011;10067;53.092;8.800;2023-05-07T13:04:59;10.10;;;7.95;;
19814;SDS011;10067;53.092;8.800;2023-05-07T13:07:26;320.67;;;74.57;;
19814;SDS011;10067;53.092;8.800;2023-05-07T13:09:52;11.98;;;8.80;;
19814;SDS011;10067;53.092;8.800;2023-05-07T13:12:18;10.13;;;7.95;;
19814;SDS011;10067;53.092;8.800;2023-05-07T13:14:45;8.20;;;7.40;;
19814;SDS011;10067;53.092;8.800;2023-05-07T13:17:13;8.75;;;7.82;;
19814;SDS011;10067;53.092;8.800;2023-05-07T13:19:39;8.70;;;7.20;;
19814;SDS011;10067;53.092;8.800;2023-05-07T13:22:06;8.05;;;6.60;;
19814;SDS011;10067;53.092;8.800;2023-05-07T13:24:32;9.07;;;7.20;;
19814;SDS011;10067;53.092;8.800;2023-05-07T13:26:59;8.30;;;6.53;;
19814;SDS011;10067;53.092;8.800;2023-05-07T13:29:25;8.07;;;6.15;;
19814;SDS011;10067;53.092;8.800;2023-05-07T13:31:55;6.65;;;5.95;;
19814;SDS011;10067;53.092;8.800;2023-05-07T13:34:23;7.25;;;6.35;;
19814;SDS011;10067;53.092;8.800;2023-05-07T13:36:50;6.32;;;5.45;;
19814;SDS011;10067;53.092;8.800;2023-05-07T13:39:16;11.02;;;5.40;;
19814;SDS011;10067;53.092;8.800;2023-05-07T13:41:42;6.47;;;5.20;;
19814;SDS011;10067;53.092;8.800;2023-05-07T13:44:09;6.68;;;5.38;;
19814;SDS011;10067;53.092;8.800;2023-05-07T13:46:36;5.95;;;5.30;;
19814;SDS011;10067;53.092;8.800;2023-05-07T13:49:03;5.63;;;5.13;;
19814;SDS011;10067;53.092;8.800;2023-05-07T13:51:31;5.50;;;5.00;;
19814;SDS011;10067;53.092;8.800;2023-05-07T13:53:57;5.70;;;5.10;;
19814;SDS011;10067;53.092;8.800;2023-05-07T13:56:24;8.20;;;5.15;;
19814;SDS011;10067;53.092;8.800;2023-05-07T13:58:53;5.57;;;5.03;;
19814;SDS011;10067;53.092;8.800;2023-05-07T14:01:19;6.20;;;5.60;;
19814;SDS011;10067;53.092;8.800;2023-05-07T14:03:46;8.23;;;5.63;;
19814;SDS011;10067;53.092;8.800;2023-05-07T14:06:12;6.80;;;5.80;;
19814;SDS011;10067;53.092;8.800;2023-05-07T14:08:40;6.50;;;5.90;;
19814;SDS011;10067;53.092;8.800;2023-05-07T14:11:06;6.70;;;5.82;;
19814;SDS011;10067;53.092;8.800;2023-05-07T14:13:33;6.95;;;5.82;;
19814;SDS011;10067;53.092;8.800;2023-05-07T14:16:00;8.02;;;6.20;;
19814;SDS011;10067;53.092;8.800;2023-05-07T14:18:26;6.78;;;5.32;;
19814;SDS011;10067;53.092;8.800;2023-05-07T14:20:53;9.02;;;6.03;;
19814;SDS011;10067;53.092;8.800;2023-05-07T14:23:20;6.47;;;5.88;;
19814;SDS011;10067;53.092;8.800;2023-05-07T14:25:52;6.32;;;5.72;;
19814;SDS011;10067;53.092;8.800;2023-05-07T14:28:19;7.00;;;6.30;;
19814;SDS011;10067;53.092;8.800;2023-05-07T14:30:46;8.85;;;6.43;;
19814;SDS011;10067;53.092;8.800;2023-05-07T14:33:12;7.10;;;6.32;;
19814;SDS011;10067;53.092;8.800;2023-05-07T14:35:39;7.10;;;5.85;;
19814;SDS011;10067;53.092;8.800;2023-05-07T14:38:05;6.50;;;5.70;;
19814;SDS011;10067;53.092;8.800;2023-05-07T14:40:31;9.48;;;6.70;;
19814;SDS011;10067;53.092;8.800;2023-05-07T14:42:59;7.90;;;6.63;;